Groton New London Airport
KGON : now visible

Airfield :











YOU CAN JOIN US ON...

 
LOGIN :

Register | Disclaimer

   EN    FR    IT 

 









Legend :    VFR   Marginal VFR   IFR   Intensive IFR   Very Intensive IFR
Visi :
Ceiling :
>= 8 km
>= 3000ft
5 to 8 km
1000 to 3000 ft
1500m to 5 km
500 to 1000 ft
800 to 1500m
200 to 500 ft
< 800m
< 200 ft
Symbols :   Thunderstorms  Fog  Heavy snow  Heavy precipitations  Wind > 20 kt






- Airport Elevation : 9 ft
- IATA code : GON


KGON - Groton New London

CURRENT METAR :
  • 270456Z AUTO 08013KT 9SM OVC006 06/06 A2972 RMK AO2 SLP064 T00610061 400940056

EXPIRED METARs :
  • 270356Z AUTO 06007KT 4SM BR OVC007 06/06 A2980 RMK AO2 SLP092 T00560056
  • 270256Z 07010KT 8SM OVC008 06/06 A2983 RMK AO2 SLP099 T00610056 56021
  • 270241Z 08007G18KT 9SM OVC009 06/06 A2984 RMK AO2 T00610056

TAF KGON
Valid from the 27 at 06:00 until the 28 at 06:00 UTC


270531Z 2706/2806 08010KT 4SM -RADZ BR OVC007
FM270700 09013G20KT 2SM SHRA BR OVC005
FM270900 10014G23KT 1SM SHRA BR OVC004
FM271200 20014G24KT 6SM BR VCSH BKN015
FM271400 25017G26KT P6SM FEW030 BKN050
FM271600 28020G33KT P6SM SCT050
FM280200 27016G25KT P6SM FEW050



MET'MAP, your aeronautical weather chart ! - Copyright ORBIFLY December 2007 - Disclaimer

ORBIFLY MET'MAP TEAM :

Programming & Development : Alexandra Zaïnal
Concept & original design : Baudouin d'Aumeries
Assistance for programming : Marc-Olivier Méhu
Technical & hardware support : Manuel Goepfert

Contact : metmap@orbifly.com




SOURCES & CREDITS :

   NOAA       Earth
Advisory